Time;durP1;ratioP1;P1;durP2;ratioP2;P2;SDS_P1;SDS_P2;PMS_P1;PMS_P2;Temp;Humidity;BMP_temperature;BMP_pressure;BME280_temperature;BME280_humidity;BME280_pressure;Samples;Min_cycle;Max_cycle;Signal;HPM_P1;HPM_P2
2024/01/23 00:01:44;;;;;;;1.67;1.57;;;11.40;80.80;10.10;96868.00;;;;5075401;28;20257;-87
2024/01/23 00:04:12;;;;;;;1.50;1.40;;;11.40;80.70;10.10;96870.00;;;;5041686;28;20679;-86
2024/01/23 00:06:39;;;;;;;1.80;1.17;;;11.30;80.60;10.10;96856.00;;;;5080537;28;20220;-86
2024/01/23 00:09:08;;;;;;;1.20;1.03;;;11.40;80.60;10.10;96856.00;;;;5073588;28;20747;-86
2024/01/23 00:11:35;;;;;;;0.97;0.90;;;11.40;80.20;10.10;96852.00;;;;5075569;28;20192;-86
2024/01/23 00:14:03;;;;;;;2.27;1.40;;;11.30;80.20;10.00;96853.00;;;;5077656;28;20262;-86
2024/01/23 00:16:30;;;;;;;2.23;1.40;;;11.30;80.20;10.00;96856.00;;;;5076731;28;20563;-86
2024/01/23 00:18:58;;;;;;;1.27;1.17;;;11.30;80.10;10.00;96861.00;;;;5078114;28;20231;-86
2024/01/23 00:21:25;;;;;;;1.57;1.20;;;11.30;80.10;10.00;96863.00;;;;5074862;28;20289;-86
2024/01/23 00:23:52;;;;;;;1.63;1.33;;;11.30;80.00;9.90;96864.00;;;;5075475;28;20188;-86
2024/01/23 00:26:22;;;;;;;1.03;0.90;;;11.20;79.90;9.90;96870.00;;;;5077165;28;20602;-86
2024/01/23 00:28:51;;;;;;;1.03;0.80;;;11.20;79.90;9.90;96870.00;;;;5076700;28;20250;-86
2024/01/23 00:31:17;;;;;;;1.70;1.00;;;11.20;80.00;9.90;96871.00;;;;5059439;28;20194;-86
2024/01/23 00:33:45;;;;;;;1.10;0.87;;;11.20;80.10;9.90;96867.00;;;;5077436;28;20188;-86
2024/01/23 00:36:12;;;;;;;1.27;0.63;;;11.10;80.20;9.80;96872.00;;;;5075782;28;20227;-87
2024/01/23 00:38:40;;;;;;;1.60;0.80;;;11.10;80.20;9.80;96867.00;;;;5075498;28;20214;-85
2024/01/23 00:41:07;;;;;;;0.70;0.70;;;11.10;80.10;9.80;96869.00;;;;5076789;28;20276;-86
2024/01/23 00:43:35;;;;;;;1.33;0.60;;;11.10;80.00;9.80;96868.00;;;;5077631;28;20192;-86
2024/01/23 00:46:03;;;;;;;0.70;0.70;;;11.10;79.80;9.70;96870.00;;;;5077926;28;20184;-86
2024/01/23 00:48:31;;;;;;;4.67;1.20;;;11.00;79.80;9.70;96866.00;;;;5079491;28;20208;-86
2024/01/23 00:50:58;;;;;;;1.90;0.63;;;11.00;79.90;9.70;96869.00;;;;5086957;28;20309;-88
2024/01/23 00:53:25;;;;;;;0.80;0.60;;;11.00;80.00;9.70;96878.00;;;;5087097;28;20207;-85
2024/01/23 00:55:54;;;;;;;1.60;0.70;;;11.00;80.20;9.70;96857.00;;;;5088479;28;20199;-86
2024/01/23 00:58:22;;;;;;;1.27;0.80;;;11.00;80.30;9.60;96848.00;;;;5092183;28;20191;-86
2024/01/23 01:00:52;;;;;;;1.50;0.70;;;11.00;80.50;9.60;96857.00;;;;5092022;28;20482;-86
2024/01/23 01:03:21;;;;;;;1.00;0.60;;;10.90;80.40;9.70;96859.00;;;;5094001;28;20254;-85
2024/01/23 01:05:48;;;;;;;1.43;0.83;;;10.90;80.40;9.60;96853.00;;;;5093066;28;20192;-88
2024/01/23 01:08:19;;;;;;;1.50;0.73;;;10.90;80.40;9.60;96861.00;;;;5092896;28;20172;-86
2024/01/23 01:10:47;;;;;;;1.20;0.50;;;10.90;80.40;9.60;96863.00;;;;5092954;28;20207;-89
2024/01/23 01:13:16;;;;;;;1.57;0.60;;;10.90;80.50;9.60;96853.00;;;;5071947;28;20288;-85
2024/01/23 01:15:45;;;;;;;2.53;0.80;;;10.90;80.60;9.60;96849.00;;;;5073165;28;20191;-85
2024/01/23 01:18:16;;;;;;;1.80;0.60;;;10.90;80.70;9.60;96862.00;;;;5071453;28;20833;-85
2024/01/23 01:20:45;;;;;;;1.13;0.60;;;10.90;81.40;9.60;96861.00;;;;5069296;28;20269;-85
2024/01/23 01:23:16;;;;;;;1.20;0.50;;;10.90;80.60;9.60;96871.00;;;;5075672;28;20836;-85
2024/01/23 01:25:45;;;;;;;1.00;0.50;;;10.90;80.40;9.60;96870.00;;;;5075473;28;20226;-85
2024/01/23 01:28:14;;;;;;;1.13;0.50;;;10.90;80.20;9.50;96870.00;;;;5073094;28;20283;-85
2024/01/23 01:30:42;;;;;;;2.53;0.40;;;10.90;79.90;9.50;96861.00;;;;5074179;28;20585;-85
2024/01/23 01:33:09;;;;;;;1.10;0.60;;;10.80;79.70;9.40;96872.00;;;;5070445;28;20207;-85
2024/01/23 01:35:38;;;;;;;1.77;0.30;;;10.80;79.40;9.40;96880.00;;;;5073252;28;20192;-85
2024/01/23 01:38:06;;;;;;;0.47;0.37;;;10.80;79.20;9.30;96875.00;;;;5071444;28;20246;-85
2024/01/23 01:40:33;;;;;;;0.73;0.60;;;10.70;79.00;9.30;96886.00;;;;5073413;28;20287;-85
2024/01/23 01:43:03;;;;;;;0.30;0.30;;;10.70;78.90;9.20;96871.00;;;;5074122;28;20678;-85
2024/01/23 01:45:30;;;;;;;0.47;0.20;;;10.60;78.80;9.20;96869.00;;;;5073606;28;20188;-85
2024/01/23 01:47:58;;;;;;;0.87;0.57;;;10.60;78.80;9.20;96879.00;;;;5074424;28;20712;-86
2024/01/23 01:50:26;;;;;;;0.37;0.30;;;10.50;78.50;9.10;96872.00;;;;5079948;28;20645;-85
2024/01/23 01:52:57;;;;;;;0.30;0.30;;;10.50;78.30;9.10;96880.00;;;;5073921;28;20192;-86
2024/01/23 01:55:24;;;;;;;1.33;0.40;;;10.40;78.20;9.00;96877.00;;;;5069595;28;20199;-85
2024/01/23 01:57:52;;;;;;;0.43;0.30;;;10.40;78.20;9.00;96876.00;;;;5074493;28;20199;-85
2024/01/23 02:00:21;;;;;;;0.53;0.20;;;10.40;78.20;8.90;96877.00;;;;5075431;28;20302;-85
2024/01/23 02:02:50;;;;;;;1.07;0.40;;;10.30;78.10;8.80;96880.00;;;;5063752;28;20216;-85
2024/01/23 02:05:17;;;;;;;1.20;0.30;;;10.20;78.00;8.80;96892.00;;;;5075711;28;20204;-85
2024/01/23 02:07:44;;;;;;;0.63;0.20;;;10.20;78.10;8.70;96890.00;;;;5077550;28;20192;-85
2024/01/23 02:10:16;;;;;;;0.50;0.13;;;10.10;78.10;8.70;96885.00;;;;5073979;28;20277;-85
2024/01/23 02:12:45;;;;;;;0.57;0.30;;;10.10;78.20;8.60;96895.00;;;;5074306;28;20208;-84
2024/01/23 02:15:12;;;;;;;0.30;0.30;;;10.00;78.20;8.60;96896.00;;;;5082779;28;20210;-84
2024/01/23 02:17:40;;;;;;;0.30;0.30;;;10.00;78.40;8.50;96904.00;;;;5073414;28;20192;-84
2024/01/23 02:20:09;;;;;;;0.63;0.30;;;9.90;78.30;8.50;96899.00;;;;5076513;28;20211;-85
2024/01/23 02:22:39;;;;;;;1.00;0.30;;;9.90;78.40;8.50;96911.00;;;;5060763;28;20223;-84
2024/01/23 02:25:09;;;;;;;0.40;0.20;;;9.90;78.30;8.40;96906.00;;;;5078756;28;20260;-84
2024/01/23 02:27:37;;;;;;;0.77;0.30;;;9.80;78.20;8.40;96911.00;;;;5077507;28;20211;-85
2024/01/23 02:30:05;;;;;;;3.50;0.40;;;9.80;78.40;8.30;96915.00;;;;5079758;28;20215;-85
2024/01/23 02:32:32;;;;;;;1.37;0.43;;;9.80;78.50;8.30;96922.00;;;;5078604;28;20219;-85
2024/01/23 02:34:59;;;;;;;0.57;0.20;;;9.70;78.40;8.30;96917.00;;;;5076412;28;20627;-85
2024/01/23 02:37:27;;;;;;;0.50;0.40;;;9.70;78.40;8.20;96920.00;;;;5075491;28;20196;-85
2024/01/23 02:39:56;;;;;;;1.07;0.47;;;9.60;78.40;8.20;96921.00;;;;5076297;28;20251;-85
2024/01/23 02:42:25;;;;;;;0.60;0.30;;;9.60;78.50;8.20;96916.00;;;;5074194;28;20287;-84
2024/01/23 02:44:53;;;;;;;1.20;0.30;;;9.60;78.40;8.10;96925.00;;;;5076518;28;20212;-84
2024/01/23 02:47:20;;;;;;;1.90;0.40;;;9.50;79.20;8.10;96924.00;;;;5076988;28;20231;-84
2024/01/23 02:49:48;;;;;;;1.77;0.30;;;9.50;78.50;8.10;96929.00;;;;5079045;28;20276;-84
2024/01/23 02:52:21;;;;;;;0.20;0.20;;;9.50;78.60;8.10;96933.00;;;;5085219;28;20291;-84
2024/01/23 02:54:48;;;;;;;1.10;0.30;;;9.50;78.50;8.00;96945.00;;;;5076437;28;20222;-84
2024/01/23 02:57:15;;;;;;;1.70;0.57;;;9.40;78.40;8.00;96960.00;;;;5083368;28;20283;-84
2024/01/23 02:59:44;;;;;;;1.23;0.43;;;9.40;78.40;8.00;96950.00;;;;5078142;28;20246;-84
2024/01/23 03:02:12;;;;;;;1.63;0.50;;;9.40;78.40;8.00;96952.00;;;;5078357;28;20242;-84
2024/01/23 03:04:39;;;;;;;0.80;0.30;;;9.40;78.50;7.90;96953.00;;;;5077782;28;20204;-85
2024/01/23 03:07:07;;;;;;;0.43;0.30;;;9.40;78.50;7.90;96965.00;;;;5076346;28;20287;-84
2024/01/23 03:09:34;;;;;;;0.50;0.47;;;9.30;78.60;7.90;96955.00;;;;5075567;28;20227;-85
2024/01/23 03:12:14;;;;;;;1.30;0.63;;;9.30;78.80;7.90;96957.00;;;;5084494;28;20187;-84
2024/01/23 03:14:42;;;;;;;1.47;0.30;;;9.30;78.90;7.90;96960.00;;;;5071479;28;20202;-85
2024/01/23 03:17:14;;;;;;;1.13;0.43;;;9.30;79.90;7.90;96957.00;;;;5076162;28;20673;-84
2024/01/23 03:19:42;;;;;;;0.93;0.37;;;9.30;79.40;8.00;96945.00;;;;5076076;28;20212;-85
2024/01/23 03:22:10;;;;;;;0.27;0.27;;;9.30;79.50;8.00;96960.00;;;;5083333;28;20254;-84
2024/01/23 03:24:39;;;;;;;1.23;0.30;;;9.30;79.50;8.00;96956.00;;;;5082797;28;20191;-84
2024/01/23 03:27:07;;;;;;;1.43;0.50;;;9.50;79.70;8.00;96962.00;;;;5073854;28;20212;-84
2024/01/23 03:29:41;;;;;;;3.90;0.50;;;9.40;80.50;8.10;96960.00;;;;5075019;28;20246;-85
2024/01/23 03:32:11;;;;;;;1.03;0.60;;;9.40;79.90;8.10;96955.00;;;;5080948;28;20192;-84
2024/01/23 03:34:40;;;;;;;1.10;0.37;;;9.50;80.90;8.10;96963.00;;;;5076071;28;20634;-85
2024/01/23 03:37:10;;;;;;;2.27;0.60;;;9.50;80.40;8.20;96966.00;;;;5072994;28;20188;-84
2024/01/23 03:39:37;;;;;;;3.07;0.50;;;9.50;80.50;8.20;96967.00;;;;5063562;28;20246;-84
2024/01/23 03:42:07;;;;;;;1.80;0.40;;;9.50;80.50;8.30;96973.00;;;;5076668;28;20308;-84
2024/01/23 03:44:34;;;;;;;1.27;0.40;;;9.60;80.60;8.30;96965.00;;;;5079196;28;20204;-84
2024/01/23 03:47:02;;;;;;;1.07;0.40;;;9.70;80.70;8.40;96974.00;;;;5075037;28;20291;-84
2024/01/23 03:49:33;;;;;;;0.47;0.30;;;9.70;80.50;8.40;96985.00;;;;5075443;28;20208;-84
2024/01/23 03:52:02;;;;;;;1.73;0.70;;;9.70;80.50;8.40;96979.00;;;;5082117;28;20191;-83
2024/01/23 03:54:30;;;;;;;1.43;0.43;;;9.70;80.50;8.50;96981.00;;;;5072174;28;20188;-83
2024/01/23 03:56:59;;;;;;;1.37;0.60;;;9.80;80.40;8.50;96992.00;;;;5076936;28;20220;-83
2024/01/23 03:59:26;;;;;;;1.53;0.63;;;9.80;80.20;8.50;97001.00;;;;5075746;28;20211;-84
2024/01/23 04:01:53;;;;;;;1.30;0.37;;;9.80;80.20;8.60;97014.00;;;;5080772;28;20314;-84
2024/01/23 04:04:22;;;;;;;1.50;0.40;;;9.90;80.20;8.60;97027.00;;;;5077651;28;20329;-84
2024/01/23 04:06:51;;;;;;;1.20;0.47;;;9.90;80.20;8.60;97030.00;;;;5077692;28;20325;-85
2024/01/23 04:09:20;;;;;;;0.47;0.37;;;9.90;80.00;8.70;97029.00;;;;5078000;28;20252;-84
2024/01/23 04:11:50;;;;;;;2.17;0.90;;;10.00;80.10;8.70;97026.00;;;;5077108;28;20227;-85
2024/01/23 04:14:19;;;;;;;1.73;0.50;;;10.00;80.00;8.70;97037.00;;;;5077702;28;20200;-84
2024/01/23 04:16:46;;;;;;;2.17;0.50;;;10.00;79.80;8.80;97044.00;;;;5076393;28;20192;-84
2024/01/23 04:19:14;;;;;;;0.50;0.40;;;10.00;80.40;8.80;97034.00;;;;5077204;28;20299;-84
2024/01/23 04:21:42;;;;;;;1.07;0.50;;;10.10;79.50;8.80;97031.00;;;;5075197;28;20642;-84
2024/01/23 04:24:13;;;;;;;1.63;0.40;;;10.10;79.30;8.80;97042.00;;;;5072412;28;20204;-84
2024/01/23 04:26:46;;;;;;;1.80;0.50;;;10.10;78.70;8.80;97031.00;;;;5075113;28;20663;-84
2024/01/23 04:29:16;;;;;;;1.80;0.30;;;10.10;78.40;8.70;97033.00;;;;5074865;28;20281;-85
2024/01/23 04:31:46;;;;;;;2.40;0.50;;;10.10;78.20;8.70;97031.00;;;;5076383;28;20246;-84
2024/01/23 04:34:13;;;;;;;0.90;0.53;;;10.10;78.00;8.70;97039.00;;;;5075446;28;20176;-84
2024/01/23 04:36:40;;;;;;;3.30;0.90;;;10.00;77.80;8.60;97044.00;;;;5078851;28;20188;-84
2024/01/23 04:39:08;;;;;;;2.10;1.03;;;10.00;77.90;8.60;97041.00;;;;5079113;28;20204;-84
2024/01/23 04:41:37;;;;;;;1.07;0.73;;;10.00;78.00;8.60;97042.00;;;;5079724;28;20192;-84
2024/01/23 04:44:05;;;;;;;3.17;0.60;;;10.00;78.00;8.60;97038.00;;;;5080633;28;20192;-84
2024/01/23 04:46:33;;;;;;;1.07;0.40;;;10.00;78.00;8.60;97048.00;;;;5078286;28;20681;-84
2024/01/23 04:49:02;;;;;;;0.47;0.30;;;10.00;78.00;8.60;97045.00;;;;5078401;28;20219;-84
2024/01/23 04:51:31;;;;;;;1.57;0.57;;;10.00;78.20;8.60;97051.00;;;;5080670;28;20218;-84
2024/01/23 04:53:58;;;;;;;0.60;0.30;;;10.00;78.20;8.60;97051.00;;;;5080626;28;20219;-84
2024/01/23 04:56:25;;;;;;;1.10;0.40;;;10.00;77.80;8.60;97055.00;;;;5079426;28;20196;-84
2024/01/23 04:58:54;;;;;;;1.03;0.40;;;10.00;77.50;8.60;97066.00;;;;5079821;28;20212;-84
2024/01/23 05:01:22;;;;;;;1.33;0.43;;;9.90;77.30;8.60;97054.00;;;;5083336;28;20196;-84
2024/01/23 05:03:50;;;;;;;3.13;0.50;;;9.90;77.00;8.50;97056.00;;;;5084216;28;20184;-85
2024/01/23 05:06:20;;;;;;;1.47;0.50;;;9.90;77.00;8.50;97072.00;;;;5082185;28;20201;-84
2024/01/23 05:08:48;;;;;;;1.43;0.90;;;9.90;76.70;8.40;97086.00;;;;5086460;28;20287;-84
2024/01/23 05:11:18;;;;;;;0.77;0.70;;;9.80;76.70;8.40;97094.00;;;;5090463;28;20192;-84
2024/01/23 05:13:46;;;;;;;1.80;0.50;;;9.80;76.90;8.40;97078.00;;;;5090014;28;20206;-84
2024/01/23 05:16:19;;;;;;;1.50;0.60;;;9.70;77.00;8.30;97090.00;;;;5070583;28;20185;-84
2024/01/23 05:18:46;;;;;;;1.00;0.50;;;9.70;77.10;8.30;97091.00;;;;5093437;28;20195;-84
2024/01/23 05:21:17;;;;;;;0.93;0.47;;;9.70;77.20;8.30;97108.00;;;;5091415;28;20179;-85
2024/01/23 05:23:45;;;;;;;3.17;0.57;;;9.70;77.20;8.30;97096.00;;;;5092440;28;20212;-84
2024/01/23 05:26:12;;;;;;;1.50;0.53;;;9.70;77.20;8.30;97106.00;;;;5091897;28;20230;-84
2024/01/23 05:28:41;;;;;;;0.90;0.40;;;9.70;77.20;8.30;97107.00;;;;5090159;28;20314;-83
2024/01/23 05:31:09;;;;;;;3.73;1.17;;;9.60;77.30;8.20;97114.00;;;;5084099;28;20184;-84
2024/01/23 05:33:38;;;;;;;2.97;0.60;;;9.60;77.30;8.20;97121.00;;;;5086517;28;20204;-83
2024/01/23 05:36:07;;;;;;;1.57;0.60;;;9.60;77.30;8.30;97122.00;;;;5084089;28;20679;-84
2024/01/23 05:38:37;;;;;;;0.60;0.47;;;9.60;77.40;8.30;97124.00;;;;5082156;28;20203;-84
2024/01/23 05:41:05;;;;;;;2.17;0.70;;;9.60;77.50;8.30;97120.00;;;;5080557;28;20214;-84
2024/01/23 05:43:33;;;;;;;3.27;0.90;;;9.60;77.60;8.30;97130.00;;;;5073372;28;20223;-84
2024/01/23 05:46:05;;;;;;;1.63;0.70;;;9.70;77.60;8.30;97142.00;;;;5073620;28;20254;-83
2024/01/23 05:48:32;;;;;;;1.10;0.60;;;9.70;77.50;8.30;97146.00;;;;5076878;28;20208;-84
2024/01/23 05:51:01;;;;;;;2.03;0.73;;;9.70;77.40;8.30;97150.00;;;;5079384;28;20249;-84
2024/01/23 05:53:30;;;;;;;1.83;0.60;;;9.70;77.30;8.30;97152.00;;;;5083074;28;20207;-84
2024/01/23 05:56:01;;;;;;;2.70;0.93;;;9.70;77.30;8.30;97162.00;;;;5074818;28;20679;-84
2024/01/23 05:58:29;;;;;;;3.07;0.80;;;9.70;77.20;8.30;97178.00;;;;5074371;28;20235;-84
2024/01/23 06:00:57;;;;;;;3.90;0.80;;;9.70;77.10;8.30;97177.00;;;;5073467;28;20188;-84
2024/01/23 06:03:24;;;;;;;3.83;0.70;;;9.70;77.20;8.30;97182.00;;;;5080210;28;20774;-84
2024/01/23 06:05:51;;;;;;;4.23;0.77;;;9.70;77.10;8.40;97176.00;;;;5077308;28;20291;-85
2024/01/23 06:08:22;;;;;;;1.47;0.93;;;9.70;77.20;8.30;97195.00;;;;5081773;28;20216;-85
2024/01/23 06:10:49;;;;;;;2.53;1.20;;;9.70;77.20;8.40;97207.00;;;;5081988;28;20271;-85
2024/01/23 06:13:18;;;;;;;6.50;2.60;;;9.70;77.40;8.40;97202.00;;;;5077373;28;20200;-83
2024/01/23 06:15:45;;;;;;;5.33;1.60;;;9.80;77.60;8.40;97203.00;;;;5085676;28;20206;-83
2024/01/23 06:18:15;;;;;;;3.07;1.27;;;9.80;77.60;8.40;97206.00;;;;5078213;28;20250;-84
2024/01/23 06:20:43;;;;;;;5.13;2.30;;;9.70;77.50;8.40;97208.00;;;;5080215;28;20196;-85
2024/01/23 06:23:10;;;;;;;3.57;1.80;;;9.70;77.50;8.40;97205.00;;;;5078483;28;20218;-84
2024/01/23 06:25:40;;;;;;;3.07;1.10;;;9.80;77.40;8.30;97203.00;;;;5083531;28;20246;-85
2024/01/23 06:28:08;;;;;;;1.33;0.67;;;9.70;77.30;8.30;97207.00;;;;5080469;28;20268;-84
2024/01/23 06:30:35;;;;;;;2.07;0.60;;;9.70;77.20;8.30;97205.00;;;;5081991;28;20242;-84
2024/01/23 06:33:05;;;;;;;2.03;0.50;;;9.70;77.30;8.30;97216.00;;;;5081639;28;20253;-83
2024/01/23 06:35:34;;;;;;;2.67;0.87;;;9.70;77.30;8.30;97235.00;;;;5086269;28;20208;-83
2024/01/23 06:38:01;;;;;;;1.90;0.60;;;9.60;78.10;8.30;97233.00;;;;5076120;28;20567;-83
2024/01/23 06:40:28;;;;;;;1.20;0.57;;;9.70;77.50;8.30;97257.00;;;;5076260;28;20770;-83
2024/01/23 06:42:57;;;;;;;1.67;0.50;;;9.70;77.40;8.30;97246.00;;;;5083703;28;20208;-83
2024/01/23 06:45:26;;;;;;;1.00;0.50;;;9.70;77.30;8.30;97252.00;;;;5075568;28;20576;-83
2024/01/23 06:47:54;;;;;;;1.57;0.57;;;9.70;77.50;8.30;97263.00;;;;5097658;28;20200;-83
2024/01/23 06:50:21;;;;;;;1.07;0.50;;;9.70;77.70;8.40;97272.00;;;;5081596;28;20203;-83
2024/01/23 06:52:51;;;;;;;2.10;0.70;;;9.70;78.00;8.40;97280.00;;;;5081248;28;20204;-83
2024/01/23 06:55:21;;;;;;;2.33;0.80;;;9.70;77.90;8.40;97286.00;;;;5081768;28;20313;-83
2024/01/23 06:57:50;;;;;;;3.80;0.97;;;9.80;78.00;8.50;97292.00;;;;5079381;28;20192;-81
2024/01/23 07:00:23;;;;;;;2.67;0.67;;;9.80;77.90;8.50;97307.00;;;;5082129;28;20219;-82
2024/01/23 07:02:51;;;;;;;3.13;0.90;;;9.90;77.90;8.60;97308.00;;;;5071496;28;20693;-82
2024/01/23 07:05:19;;;;;;;2.03;0.70;;;9.90;78.00;8.60;97285.00;;;;5082281;28;20808;-82
2024/01/23 07:07:46;;;;;;;4.87;0.87;;;9.90;77.90;8.70;97304.00;;;;5081799;28;20203;-82
2024/01/23 07:10:13;;;;;;;1.50;0.50;;;10.00;78.20;8.70;97312.00;;;;5063274;28;20205;-82
2024/01/23 07:12:41;;;;;;;2.60;0.93;;;10.00;78.20;8.70;97327.00;;;;5080467;28;20673;-82
2024/01/23 07:15:09;;;;;;;1.50;0.60;;;10.00;78.40;8.80;97323.00;;;;5082307;28;20550;-82
2024/01/23 07:17:39;;;;;;;1.60;0.57;;;10.00;78.50;8.80;97336.00;;;;5084199;28;20223;-82
2024/01/23 07:20:11;;;;;;;2.00;0.53;;;10.10;78.50;8.80;97349.00;;;;5081852;28;20218;-82
2024/01/23 07:22:39;;;;;;;1.13;0.50;;;10.10;78.60;8.80;97342.00;;;;5082208;28;20206;-82
2024/01/23 07:25:06;;;;;;;2.80;0.60;;;10.20;78.60;8.90;97355.00;;;;5083958;28;20204;-82
2024/01/23 07:27:34;;;;;;;1.57;0.50;;;10.20;78.20;8.90;97348.00;;;;5073200;28;20208;-82
2024/01/23 07:30:03;;;;;;;2.40;0.53;;;10.20;77.90;8.90;97354.00;;;;5081138;28;20220;-81
2024/01/23 07:32:30;;;;;;;3.83;1.00;;;10.20;77.90;8.90;97364.00;;;;5081882;28;20286;-82
2024/01/23 07:35:01;;;;;;;2.70;0.60;;;10.20;77.90;8.90;97367.00;;;;5083515;28;20227;-82
2024/01/23 07:37:28;;;;;;;2.27;0.80;;;10.30;77.70;8.90;97371.00;;;;5082982;28;20219;-82
2024/01/23 07:39:58;;;;;;;6.63;0.83;;;10.30;77.70;8.90;97365.00;;;;5084100;28;20251;-82
2024/01/23 07:42:26;;;;;;;1.77;0.70;;;10.30;77.60;8.90;97368.00;;;;5083676;28;20242;-82
2024/01/23 07:44:54;;;;;;;2.67;1.00;;;10.30;77.50;8.90;97376.00;;;;5082614;28;20253;-82
2024/01/23 07:47:22;;;;;;;0.93;0.37;;;10.30;77.30;8.90;97377.00;;;;5084129;28;20216;-82
2024/01/23 07:49:52;;;;;;;1.90;0.73;;;10.30;77.40;8.90;97378.00;;;;5083261;28;20711;-82
2024/01/23 07:52:22;;;;;;;2.13;0.60;;;10.30;77.10;8.90;97393.00;;;;5082431;28;20196;-82
2024/01/23 07:54:50;;;;;;;3.43;0.83;;;10.30;77.10;9.00;97398.00;;;;5084953;28;20187;-82
2024/01/23 07:57:17;;;;;;;2.70;1.10;;;10.30;77.30;9.00;97403.00;;;;5085617;28;20219;-82
2024/01/23 07:59:44;;;;;;;2.93;1.30;;;10.30;77.40;9.00;97410.00;;;;5084988;28;20216;-81
2024/01/23 08:02:13;;;;;;;2.83;1.00;;;10.30;77.50;9.00;97422.00;;;;5090033;28;20649;-82
2024/01/23 08:04:42;;;;;;;2.37;0.80;;;10.30;77.60;9.00;97424.00;;;;5082531;28;20257;-81
2024/01/23 08:07:11;;;;;;;2.70;1.20;;;10.30;77.60;9.00;97414.00;;;;5080203;28;20192;-82
2024/01/23 08:09:40;;;;;;;2.40;0.73;;;10.40;77.60;9.00;97409.00;;;;5084038;28;20212;-82
2024/01/23 08:12:08;;;;;;;3.53;2.43;;;10.30;77.60;9.00;97424.00;;;;5080938;28;20250;-81
2024/01/23 08:14:35;;;;;;;5.13;1.33;;;10.40;77.50;9.00;97415.00;;;;5086056;28;20202;-82
2024/01/23 08:17:03;;;;;;;1.90;0.87;;;10.40;77.30;9.00;97415.00;;;;5084602;28;20237;-82
2024/01/23 08:19:30;;;;;;;1.50;0.70;;;10.40;77.10;9.00;97425.00;;;;5085564;28;20242;-82
2024/01/23 08:21:58;;;;;;;4.00;0.80;;;10.40;77.00;9.00;97418.00;;;;5084956;28;20234;-81
2024/01/23 08:24:29;;;;;;;1.17;1.00;;;10.40;76.90;9.00;97421.00;;;;5080171;28;20234;-81
2024/01/23 08:27:00;;;;;;;0.97;0.70;;;10.40;76.70;9.00;97430.00;;;;5085149;28;20655;-82
2024/01/23 08:29:27;;;;;;;1.37;0.90;;;10.40;76.70;9.00;97419.00;;;;5079397;28;20223;-81
2024/01/23 08:31:56;;;;;;;1.93;0.60;;;10.40;76.80;9.00;97429.00;;;;5085119;28;20203;-81
2024/01/23 08:34:25;;;;;;;2.17;0.80;;;10.40;76.80;9.00;97439.00;;;;5087420;28;20282;-82
2024/01/23 08:36:52;;;;;;;1.87;0.87;;;10.40;76.80;9.00;97435.00;;;;5088225;28;20196;-82
2024/01/23 08:39:21;;;;;;;1.17;0.57;;;10.40;76.80;9.10;97441.00;;;;5086595;28;20219;-82
2024/01/23 08:41:52;;;;;;;2.20;0.90;;;10.40;76.80;9.10;97449.00;;;;5086954;28;20218;-81
2024/01/23 08:44:23;;;;;;;1.63;0.60;;;10.40;77.10;9.10;97453.00;;;;5088410;28;20239;-81
2024/01/23 08:46:51;;;;;;;4.27;1.07;;;10.50;77.00;9.20;97452.00;;;;5087569;28;20653;-81
2024/01/23 08:49:18;;;;;;;1.77;0.70;;;10.50;77.10;9.20;97447.00;;;;5085614;28;20220;-81
2024/01/23 08:51:47;;;;;;;1.77;0.70;;;10.50;77.10;9.30;97456.00;;;;5087200;28;20223;-82
2024/01/23 08:54:18;;;;;;;2.77;0.80;;;10.60;78.00;9.30;97468.00;;;;5084772;28;20186;-81
2024/01/23 08:56:46;;;;;;;2.10;0.70;;;10.60;77.00;9.40;97470.00;;;;5085469;28;20199;-81
2024/01/23 08:59:14;;;;;;;2.73;1.03;;;10.70;77.00;9.40;97479.00;;;;5086106;28;20219;-81
2024/01/23 09:01:43;;;;;;;2.80;0.93;;;10.70;77.00;9.50;97470.00;;;;5097564;28;20197;-80
2024/01/23 09:04:10;;;;;;;8.87;1.00;;;10.80;77.60;9.50;97473.00;;;;5092172;28;20211;-81
2024/01/23 09:06:38;;;;;;;0.40;0.30;;;10.80;77.00;9.60;97490.00;;;;5086516;28;20210;-81
2024/01/23 09:09:07;;;;;;;2.03;0.50;;;10.90;77.00;9.60;97491.00;;;;5084029;28;20235;-81
2024/01/23 09:11:34;;;;;;;1.90;0.77;;;10.90;76.40;9.70;97492.00;;;;5082195;28;20195;-81
2024/01/23 09:14:01;;;;;;;2.87;0.70;;;11.00;76.40;9.70;97490.00;;;;5078727;28;20202;-81
2024/01/23 09:16:28;;;;;;;0.73;0.43;;;11.00;76.00;9.70;97495.00;;;;5080793;28;20446;-81
2024/01/23 09:18:57;;;;;;;0.77;0.50;;;11.00;75.80;9.70;97493.00;;;;5076256;28;20249;-81
2024/01/23 09:21:25;;;;;;;1.80;0.63;;;11.00;75.80;9.70;97500.00;;;;5076099;28;20249;-81
2024/01/23 09:24:00;;;;;;;1.50;0.67;;;11.00;75.90;9.70;97511.00;;;;5085882;28;20223;-81
2024/01/23 09:26:27;;;;;;;1.33;0.50;;;11.10;75.30;9.80;97502.00;;;;5084178;28;20188;-81
2024/01/23 09:28:55;;;;;;;3.03;0.70;;;11.10;75.40;9.80;97524.00;;;;5080502;28;20234;-81
2024/01/23 09:31:23;;;;;;;4.27;0.90;;;11.00;75.20;9.80;97531.00;;;;5084184;28;20187;-81
2024/01/23 09:33:50;;;;;;;1.70;0.60;;;11.10;75.20;9.80;97529.00;;;;5086861;28;20210;-81
2024/01/23 09:36:20;;;;;;;1.87;0.60;;;11.10;75.20;9.80;97532.00;;;;5092697;28;20210;-80
2024/01/23 09:38:47;;;;;;;1.93;0.83;;;11.10;75.10;9.80;97531.00;;;;5088880;28;20211;-81
2024/01/23 09:41:15;;;;;;;0.90;0.53;;;11.10;75.20;9.80;97540.00;;;;5088291;28;20199;-80
2024/01/23 09:43:43;;;;;;;1.00;0.53;;;11.20;75.30;9.90;97550.00;;;;5086592;28;20220;-81
2024/01/23 09:46:12;;;;;;;1.80;0.50;;;11.20;75.30;9.90;97557.00;;;;5088179;28;20189;-81
2024/01/23 09:48:40;;;;;;;2.43;0.60;;;11.20;75.10;9.90;97564.00;;;;5086373;28;20215;-81
2024/01/23 09:51:14;;;;;;;0.80;0.40;;;11.20;75.20;9.90;97555.00;;;;5090387;28;20199;-81
2024/01/23 09:53:45;;;;;;;1.17;0.70;;;11.20;75.10;10.00;97554.00;;;;5087716;28;20363;-81
2024/01/23 09:56:14;;;;;;;2.43;0.50;;;11.30;75.60;10.10;97546.00;;;;5090000;28;20188;-80
2024/01/23 09:58:42;;;;;;;1.87;0.47;;;11.30;75.80;10.20;97565.00;;;;5089915;28;20208;-80
2024/01/23 10:01:11;;;;;;;1.43;0.40;;;11.40;76.00;10.30;97576.00;;;;5090527;28;20206;-80
2024/01/23 10:03:48;;;;;;;1.10;0.40;;;11.50;75.70;10.40;97570.00;;;;5094048;28;20467;-81
2024/01/23 10:06:15;;;;;;;1.30;0.63;;;11.60;75.40;10.40;97578.00;;;;5085653;28;20191;-81
2024/01/23 10:08:44;;;;;;;1.60;0.73;;;11.70;75.20;10.50;97589.00;;;;5086633;28;20213;-81
2024/01/23 10:11:11;;;;;;;1.27;0.47;;;11.70;74.70;10.50;97593.00;;;;5088221;28;20188;-81
2024/01/23 10:13:38;;;;;;;3.67;0.60;;;11.80;74.70;10.60;97588.00;;;;5090220;28;20196;-81
2024/01/23 10:16:08;;;;;;;2.20;0.40;;;11.80;74.80;10.70;97590.00;;;;5084415;28;20203;-81
2024/01/23 10:18:35;;;;;;;1.23;0.70;;;11.90;74.90;10.70;97588.00;;;;5087220;28;20199;-81
2024/01/23 10:21:02;;;;;;;1.10;0.50;;;11.90;74.90;10.90;97592.00;;;;5087386;28;20560;-81
2024/01/23 10:23:33;;;;;;;0.67;0.37;;;12.10;75.20;11.00;97587.00;;;;5086583;28;20208;-81
2024/01/23 10:26:02;;;;;;;2.50;0.80;;;12.20;75.50;11.10;97596.00;;;;5086835;28;20191;-81
2024/01/23 10:28:29;;;;;;;0.83;0.60;;;12.30;75.10;11.20;97604.00;;;;5087476;28;20208;-81
2024/01/23 10:30:58;;;;;;;1.20;0.50;;;12.40;74.80;11.30;97617.00;;;;5086613;28;20196;-80
2024/01/23 10:33:25;;;;;;;1.67;0.37;;;12.50;74.50;11.40;97621.00;;;;5090440;28;20188;-81
2024/01/23 10:35:55;;;;;;;0.83;0.37;;;12.60;74.20;11.40;97628.00;;;;5089588;28;20192;-81
2024/01/23 10:38:23;;;;;;;1.00;0.40;;;12.60;73.70;11.40;97631.00;;;;5091567;28;20217;-81
2024/01/23 10:40:52;;;;;;;1.33;0.40;;;12.60;73.40;11.40;97630.00;;;;5090954;28;20230;-81
2024/01/23 10:43:22;;;;;;;1.03;0.63;;;12.70;73.20;11.40;97621.00;;;;5085591;28;20226;-81
2024/01/23 10:45:53;;;;;;;2.53;0.50;;;12.70;72.60;11.40;97621.00;;;;5086751;28;20203;-81
2024/01/23 10:48:20;;;;;;;0.87;0.40;;;12.70;72.50;11.40;97621.00;;;;5083627;28;20503;-81
2024/01/23 10:50:53;;;;;;;1.43;0.50;;;12.70;72.10;11.30;97623.00;;;;5081971;28;20632;-81
2024/01/23 10:53:35;;;;;;;0.93;0.60;;;12.70;71.60;11.30;97622.00;;;;5083119;28;20223;-80
2024/01/23 10:56:05;;;;;;;1.07;0.63;;;12.60;71.90;11.30;97638.00;;;;5084498;28;20206;-81
2024/01/23 10:58:36;;;;;;;1.20;0.60;;;12.60;72.00;11.30;97618.00;;;;5085159;28;20410;-81
2024/01/23 11:01:10;;;;;;;2.67;0.90;;;12.60;71.40;11.30;97620.00;;;;5083063;28;20212;-81
2024/01/23 11:03:39;;;;;;;2.17;0.60;;;12.60;71.60;11.30;97622.00;;;;5105777;28;20224;-81
2024/01/23 11:06:18;;;;;;;1.37;0.60;;;12.60;71.70;11.30;97627.00;;;;5083721;28;20195;-81
2024/01/23 11:09:01;;;;;;;1.17;0.50;;;12.60;71.30;11.30;97627.00;;;;5085853;28;20219;-81